createdAt,value
2018-05-09T00:00:16.653Z,87.87
2018-05-09T00:01:16.711Z,88.73
2018-05-09T00:02:16.772Z,89.01
2018-05-09T00:03:16.835Z,89.20
2018-05-09T00:04:16.894Z,89.30
2018-05-09T00:05:17.204Z,89.87
2018-05-09T00:06:17.013Z,90.64
2018-05-09T00:07:17.074Z,90.54
2018-05-09T00:08:17.135Z,90.45
2018-05-09T00:09:17.195Z,90.83
2018-05-09T00:10:17.256Z,90.64
2018-05-09T00:11:17.316Z,89.49
2018-05-09T00:12:17.375Z,89.59
2018-05-09T00:13:17.435Z,89.59
2018-05-09T00:14:17.495Z,89.68
2018-05-09T00:15:17.559Z,89.39
2018-05-09T00:16:17.621Z,86.91
2018-05-09T00:17:17.675Z,85.48
2018-05-09T00:18:17.740Z,84.96
2018-05-09T00:19:17.797Z,85.05
2018-05-09T00:20:17.969Z,84.43
2018-05-09T00:21:17.916Z,83.86
2018-05-09T00:22:17.978Z,84.00
2018-05-09T00:23:18.044Z,84.52
2018-05-09T00:24:18.098Z,84.77
2018-05-09T00:25:18.157Z,85.25
2018-05-09T00:26:18.218Z,85.05
2018-05-09T00:27:18.277Z,84.86
2018-05-09T00:28:18.336Z,85.34
2018-05-09T00:29:18.397Z,85.05
2018-05-09T00:30:18.461Z,84.86
2018-05-09T00:31:18.518Z,84.20
2018-05-09T00:32:18.578Z,85.05
2018-05-09T00:33:18.637Z,85.44
2018-05-09T00:34:18.699Z,86.10
2018-05-09T00:35:18.757Z,86.10
2018-05-09T00:36:18.818Z,86.77
2018-05-09T00:37:18.876Z,87.35
2018-05-09T00:38:18.937Z,87.44
2018-05-09T00:39:18.997Z,86.68
2018-05-09T00:40:19.057Z,86.68
2018-05-09T00:41:19.118Z,86.87
2018-05-09T00:42:19.177Z,86.10
2018-05-09T00:43:19.237Z,85.34
2018-05-09T00:44:19.301Z,86.10
2018-05-09T00:45:19.359Z,86.68
2018-05-09T00:46:19.417Z,86.01
2018-05-09T00:47:19.477Z,85.72
2018-05-09T00:48:19.536Z,85.63
2018-05-09T00:49:19.596Z,85.82
2018-05-09T00:50:19.657Z,85.91
2018-05-09T00:51:19.716Z,86.10
2018-05-09T00:52:19.778Z,85.91
2018-05-09T00:53:19.835Z,86.39
2018-05-09T00:54:19.896Z,86.39
2018-05-09T00:55:19.957Z,87.25
2018-05-09T00:56:20.016Z,87.73
2018-05-09T00:57:20.074Z,89.25
2018-05-09T00:58:20.134Z,88.59
2018-05-09T00:59:20.194Z,88.49
2018-05-09T01:00:20.253Z,91.02
2018-05-09T01:01:20.313Z,91.98
2018-05-09T01:02:20.373Z,92.55
2018-05-09T01:03:20.439Z,91.98
2018-05-09T01:04:20.494Z,89.69
2018-05-09T01:05:20.552Z,87.97
2018-05-09T01:06:20.613Z,88.45
2018-05-09T01:07:20.673Z,88.26
2018-05-09T01:08:20.733Z,87.21
2018-05-09T01:09:20.792Z,86.82
2018-05-09T01:10:20.852Z,86.54
2018-05-09T01:11:20.913Z,87.11
2018-05-09T01:12:20.972Z,86.63
2018-05-09T01:13:21.031Z,87.11
2018-05-09T01:14:21.090Z,88.64
2018-05-09T01:15:21.151Z,87.63
2018-05-09T01:16:21.210Z,87.63
2018-05-09T01:17:21.268Z,86.82
2018-05-09T01:18:21.328Z,87.68
2018-05-09T01:19:21.389Z,88.16
2018-05-09T01:20:21.449Z,89.12
2018-05-09T01:21:21.509Z,88.73
2018-05-09T01:22:21.568Z,89.59
2018-05-09T01:23:21.626Z,89.12
2018-05-09T01:24:21.837Z,87.78
2018-05-09T01:25:21.746Z,88.64
2018-05-09T01:26:21.806Z,88.35
2018-05-09T01:27:21.866Z,87.87
2018-05-09T01:28:21.925Z,88.92
2018-05-09T01:29:21.985Z,88.64
2018-05-09T01:30:22.043Z,88.83
2018-05-09T01:31:22.103Z,89.21
2018-05-09T01:32:22.162Z,89.31
2018-05-09T01:33:22.221Z,89.97
2018-05-09T01:34:22.281Z,90.73
2018-05-09T01:35:22.345Z,90.93
2018-05-09T01:36:22.400Z,89.50
2018-05-09T01:37:22.460Z,89.59
2018-05-09T01:38:22.519Z,89.12
2018-05-09T01:39:22.580Z,89.07
2018-05-09T01:40:22.639Z,89.36
2018-05-09T01:41:22.847Z,89.40
2018-05-09T01:42:22.757Z,89.45
2018-05-09T01:43:22.817Z,90.03
2018-05-09T01:44:22.876Z,89.97
2018-05-09T01:45:22.935Z,89.50
2018-05-09T01:46:22.995Z,89.36
2018-05-09T01:47:23.055Z,90.12
2018-05-09T01:48:23.115Z,89.50
2018-05-09T01:49:23.174Z,89.74
2018-05-09T01:50:23.235Z,90.69
2018-05-09T01:51:23.294Z,90.31
2018-05-09T01:52:23.353Z,90.50
2018-05-09T01:53:23.412Z,89.93
2018-05-09T01:54:23.472Z,90.31
2018-05-09T01:55:23.531Z,90.98
2018-05-09T01:56:23.591Z,90.79
2018-05-09T01:57:23.650Z,91.64
2018-05-09T01:58:23.708Z,90.98
2018-05-09T01:59:23.767Z,91.83
2018-05-09T02:00:23.891Z,92.50
2018-05-09T02:01:23.904Z,92.88
2018-05-09T02:02:23.945Z,92.50
2018-05-09T02:03:24.015Z,92.50
2018-05-09T02:04:24.064Z,93.08
2018-05-09T02:05:24.122Z,93.65
2018-05-09T02:06:24.181Z,93.55
2018-05-09T02:07:24.242Z,91.36
2018-05-09T02:08:24.303Z,90.59
2018-05-09T02:09:24.611Z,90.22
2018-05-09T02:10:24.425Z,90.12
2018-05-09T02:11:24.480Z,90.03
2018-05-09T02:12:24.539Z,90.12
2018-05-09T02:13:24.600Z,90.79
2018-05-09T02:14:24.655Z,91.17
2018-05-09T02:15:24.719Z,90.98
2018-05-09T02:16:24.775Z,91.17
2018-05-09T02:17:24.833Z,92.22
2018-05-09T02:18:24.892Z,91.74
2018-05-09T02:19:24.965Z,91.93
2018-05-09T02:20:25.011Z,91.74
2018-05-09T02:21:25.071Z,92.50
2018-05-09T02:22:25.134Z,93.55
2018-05-09T02:23:25.190Z,93.08
2018-05-09T02:24:25.269Z,93.08
2018-05-09T02:25:25.321Z,93.08
2018-05-09T02:26:25.368Z,93.17
2018-05-09T02:27:25.425Z,93.27
2018-05-09T02:28:25.485Z,93.36
2018-05-09T02:29:25.552Z,93.70
2018-05-09T02:30:25.603Z,94.46
2018-05-09T02:31:25.679Z,94.37
2018-05-09T02:32:25.721Z,94.46
2018-05-09T02:33:25.785Z,94.84
2018-05-09T02:34:25.840Z,94.74
2018-05-09T02:35:25.899Z,95.61
2018-05-09T02:36:25.959Z,96.08
2018-05-09T02:37:26.018Z,95.98
2018-05-09T02:38:26.077Z,95.61
2018-05-09T02:39:26.137Z,96.17
2018-05-09T02:40:26.196Z,95.89
2018-05-09T02:41:26.255Z,94.74
2018-05-09T02:42:26.312Z,94.17
2018-05-09T02:43:26.376Z,93.60
2018-05-09T02:44:26.433Z,93.32
2018-05-09T02:45:26.490Z,92.46
2018-05-09T02:46:26.550Z,92.46
2018-05-09T02:47:26.608Z,93.41
2018-05-09T02:48:26.669Z,93.12
2018-05-09T02:49:26.725Z,93.70
2018-05-09T02:50:26.787Z,94.08
2018-05-09T02:51:26.844Z,93.88
2018-05-09T02:52:26.908Z,93.79
2018-05-09T02:53:26.963Z,94.17
2018-05-09T02:54:27.022Z,94.08
2018-05-09T02:55:27.081Z,94.41
2018-05-09T02:56:27.141Z,95.17
2018-05-09T02:57:27.198Z,96.17
2018-05-09T02:58:27.258Z,94.93
2018-05-09T02:59:27.321Z,95.51
2018-05-09T03:00:27.375Z,96.17
2018-05-09T03:01:27.435Z,97.17
2018-05-09T03:02:27.494Z,96.41
2018-05-09T03:03:27.551Z,96.65
2018-05-09T03:04:27.612Z,97.22
2018-05-09T03:05:27.669Z,98.56
2018-05-09T03:06:27.727Z,98.85
2018-05-09T03:07:27.786Z,98.75
2018-05-09T03:08:27.846Z,98.94
2018-05-09T03:09:27.903Z,97.17
2018-05-09T03:10:27.962Z,96.32
2018-05-09T03:11:28.021Z,96.98
2018-05-09T03:12:28.235Z,97.27
2018-05-09T03:13:28.139Z,96.80
2018-05-09T03:14:28.198Z,98.51
2018-05-09T03:15:28.257Z,97.80
2018-05-09T03:16:28.316Z,96.84
2018-05-09T03:17:28.523Z,96.56
2018-05-09T03:18:28.433Z,95.98
2018-05-09T03:19:28.491Z,95.12
2018-05-09T03:20:28.568Z,95.17
2018-05-09T03:21:28.607Z,96.46
2018-05-09T03:22:28.667Z,96.36
2018-05-09T03:23:28.726Z,96.89
2018-05-09T03:24:28.786Z,96.84
2018-05-09T03:25:28.843Z,97.08
2018-05-09T03:26:28.902Z,96.80
2018-05-09T03:27:28.962Z,96.70
2018-05-09T03:28:29.021Z,98.32
2018-05-09T03:29:29.079Z,98.70
2018-05-09T03:30:29.139Z,98.32
2018-05-09T03:31:29.196Z,98.32
2018-05-09T03:32:29.256Z,98.51
2018-05-09T03:33:29.313Z,98.70
2018-05-09T03:34:29.374Z,97.27
2018-05-09T03:35:29.431Z,95.65
2018-05-09T03:36:29.491Z,96.12
2018-05-09T03:37:29.604Z,96.41
2018-05-09T03:38:29.607Z,96.41
2018-05-09T03:39:29.672Z,97.08
2018-05-09T03:40:29.725Z,97.46
2018-05-09T03:41:29.784Z,96.98
2018-05-09T03:42:29.842Z,96.60
2018-05-09T03:43:29.902Z,97.46
2018-05-09T03:44:29.961Z,98.32
2018-05-09T03:45:30.020Z,98.51
2018-05-09T03:46:30.078Z,97.84
2018-05-09T03:47:30.141Z,99.46
2018-05-09T03:48:30.196Z,97.46
2018-05-09T03:49:30.253Z,98.32
2018-05-09T03:50:30.313Z,98.60
2018-05-09T03:51:30.372Z,97.17
2018-05-09T03:52:30.680Z,97.65
2018-05-09T03:53:30.489Z,97.46
2018-05-09T03:54:30.547Z,98.79
2018-05-09T03:55:30.604Z,98.03
2018-05-09T03:56:30.669Z,98.60
2018-05-09T03:57:30.727Z,98.41
2018-05-09T03:58:30.781Z,99.84
2018-05-09T03:59:30.841Z,99.55
2018-05-09T04:00:30.913Z,98.89
2018-05-09T04:01:31.025Z,98.70
2018-05-09T04:02:31.021Z,98.89
2018-05-09T04:03:31.227Z,99.08
2018-05-09T04:04:31.135Z,99.99
2018-05-09T04:05:31.524Z,99.99
2018-05-09T04:06:31.255Z,99.99
2018-05-09T04:07:31.315Z,99.99
2018-05-09T04:08:31.371Z,99.99
2018-05-09T04:09:31.536Z,99.99
2018-05-09T04:10:31.508Z,99.99
2018-05-09T04:11:31.548Z,99.99
2018-05-09T04:12:31.603Z,99.99
2018-05-09T04:13:31.661Z,99.99
2018-05-09T04:14:31.720Z,99.99
2018-05-09T04:15:31.779Z,99.99
2018-05-09T04:16:31.839Z,99.99
2018-05-09T04:17:31.904Z,99.99
2018-05-09T04:18:31.955Z,99.99
2018-05-09T04:19:32.014Z,99.99
2018-05-09T04:20:32.078Z,99.99
2018-05-09T04:21:32.134Z,99.99
2018-05-09T04:22:32.189Z,99.99
2018-05-09T04:23:32.248Z,99.99
2018-05-09T04:24:32.307Z,99.99
2018-05-09T04:25:32.365Z,99.99
2018-05-09T04:26:32.425Z,99.99
2018-05-09T04:27:32.484Z,99.99
2018-05-09T04:28:32.541Z,99.99
2018-05-09T04:29:32.600Z,99.99
2018-05-09T04:30:32.658Z,99.99
2018-05-09T04:31:32.719Z,99.99
2018-05-09T04:32:32.777Z,99.99
2018-05-09T04:33:32.835Z,99.99
2018-05-09T04:34:32.895Z,99.99
2018-05-09T04:35:32.952Z,99.99
2018-05-09T04:36:33.014Z,99.99
2018-05-09T04:37:33.069Z,99.99
2018-05-09T04:38:33.129Z,99.99
2018-05-09T04:39:33.187Z,99.75
2018-05-09T04:40:33.275Z,99.84
2018-05-09T04:41:33.336Z,99.99
2018-05-09T04:42:33.441Z,99.99
2018-05-09T04:43:33.455Z,99.99
2018-05-09T04:44:33.516Z,99.84
2018-05-09T04:45:33.579Z,99.99
2018-05-09T04:46:33.628Z,99.65
2018-05-09T04:47:33.657Z,99.75
2018-05-09T04:48:33.715Z,99.99
2018-05-09T04:49:33.776Z,99.84
2018-05-09T04:50:33.833Z,99.46
2018-05-09T04:51:33.892Z,99.75
2018-05-09T04:52:33.975Z,99.65
2018-05-09T04:53:34.548Z,99.99
2018-05-09T04:54:34.100Z,99.99
2018-05-09T04:55:34.285Z,99.99
2018-05-09T04:56:34.230Z,99.46
2018-05-09T04:57:34.245Z,98.89
2018-05-09T04:58:34.303Z,98.99
2018-05-09T04:59:34.362Z,99.46
2018-05-09T05:00:34.420Z,99.75
2018-05-09T05:01:34.478Z,99.99
2018-05-09T05:02:34.539Z,99.99
2018-05-09T05:03:34.598Z,99.99
2018-05-09T05:04:34.656Z,99.84
2018-05-09T05:05:34.716Z,99.99
2018-05-09T05:06:34.776Z,99.99
2018-05-09T05:07:34.833Z,99.99
2018-05-09T05:08:34.892Z,99.70
2018-05-09T05:09:34.950Z,99.70
2018-05-09T05:10:35.012Z,99.70
2018-05-09T05:11:35.069Z,99.99
2018-05-09T05:12:35.129Z,99.70
2018-05-09T05:13:35.187Z,99.89
2018-05-09T05:14:35.247Z,99.70
2018-05-09T05:15:35.306Z,99.99
2018-05-09T05:16:35.365Z,99.41
2018-05-09T05:17:35.423Z,98.36
2018-05-09T05:18:35.482Z,97.70
2018-05-09T05:19:35.562Z,98.75
2018-05-09T05:20:35.601Z,99.13
2018-05-09T05:21:35.816Z,99.37
2018-05-09T05:22:35.720Z,99.70
2018-05-09T05:23:36.348Z,99.85
2018-05-09T05:24:35.841Z,99.95
2018-05-09T05:25:36.935Z,99.99
2018-05-09T05:26:35.958Z,99.99
2018-05-09T05:27:36.016Z,99.99
2018-05-09T05:28:36.077Z,99.37
2018-05-09T05:29:36.135Z,99.66
2018-05-09T05:30:36.559Z,99.66
2018-05-09T05:31:36.342Z,99.75
2018-05-09T05:32:36.344Z,99.99
2018-05-09T05:33:36.471Z,99.08
2018-05-09T05:34:36.837Z,99.46
2018-05-09T05:35:36.896Z,99.18
2018-05-09T05:36:36.673Z,98.99
2018-05-09T05:37:36.612Z,98.99
2018-05-09T05:38:36.680Z,98.99
2018-05-09T05:39:36.750Z,98.99
2018-05-09T05:40:36.828Z,99.27
2018-05-09T05:41:37.217Z,99.75
2018-05-09T05:42:36.926Z,99.75
2018-05-09T05:43:37.005Z,99.27
2018-05-09T05:44:37.090Z,99.66
2018-05-09T05:45:37.090Z,98.80
2018-05-09T05:46:37.453Z,98.94
2018-05-09T05:47:37.210Z,98.42
2018-05-09T05:48:37.269Z,97.89
2018-05-09T05:49:37.361Z,97.32
2018-05-09T05:50:37.552Z,96.94
2018-05-09T05:51:37.483Z,96.75
2018-05-09T05:52:37.555Z,96.46
2018-05-09T05:53:37.625Z,96.66
2018-05-09T05:54:37.661Z,96.37
2018-05-09T05:55:37.766Z,96.46
2018-05-09T05:56:37.803Z,96.37
2018-05-09T05:57:37.862Z,96.27
2018-05-09T05:58:38.484Z,96.37
2018-05-09T05:59:38.279Z,95.98
2018-05-09T06:00:38.036Z,96.17
2018-05-09T06:01:38.445Z,96.13
2018-05-09T06:02:38.201Z,96.08
2018-05-09T06:03:38.210Z,95.94
2018-05-09T06:04:38.269Z,95.94
2018-05-09T06:05:38.383Z,95.36
2018-05-09T06:06:38.728Z,95.46
2018-05-09T06:07:38.508Z,95.36
2018-05-09T06:08:39.252Z,94.89
2018-05-09T06:09:38.919Z,94.60
2018-05-09T06:10:38.608Z,94.79
2018-05-09T06:11:38.647Z,94.70
2018-05-09T06:12:38.709Z,94.46
2018-05-09T06:13:38.919Z,94.27
2018-05-09T06:14:38.829Z,93.79
2018-05-09T06:15:38.889Z,94.27
2018-05-09T06:16:38.948Z,93.79
2018-05-09T06:17:39.694Z,93.60
2018-05-09T06:18:39.989Z,93.60
2018-05-09T06:19:39.597Z,92.74
2018-05-09T06:20:39.199Z,92.40
2018-05-09T06:21:39.252Z,92.79
2018-05-09T06:22:39.703Z,91.83
2018-05-09T06:23:39.609Z,91.40
2018-05-09T06:24:40.379Z,91.93
2018-05-09T06:25:39.493Z,91.93
2018-05-09T06:26:39.552Z,92.02
2018-05-09T06:27:39.658Z,91.54
2018-05-09T06:28:39.679Z,91.54
2018-05-09T06:29:40.275Z,91.93
2018-05-09T06:30:39.795Z,91.83
2018-05-09T06:31:39.855Z,91.83
2018-05-09T06:32:39.919Z,91.83
2018-05-09T06:33:39.975Z,91.11
2018-05-09T06:34:40.632Z,91.02
2018-05-09T06:35:40.185Z,90.44
2018-05-09T06:36:40.193Z,90.34
2018-05-09T06:37:40.225Z,89.96
2018-05-09T06:38:40.604Z,90.06
2018-05-09T06:39:40.344Z,89.96
2018-05-09T06:40:42.621Z,89.39
2018-05-09T06:41:41.128Z,89.87
2018-05-09T06:42:40.558Z,89.48
2018-05-09T06:43:40.650Z,89.67
2018-05-09T06:44:41.207Z,89.96
2018-05-09T06:45:40.707Z,89.10
2018-05-09T06:46:40.769Z,89.39
2018-05-09T06:47:40.828Z,88.91
2018-05-09T06:48:40.889Z,89.01
2018-05-09T06:49:40.950Z,88.48
2018-05-09T06:50:41.014Z,88.19
2018-05-09T06:51:41.072Z,87.90
2018-05-09T06:52:41.135Z,86.85
2018-05-09T06:53:41.194Z,86.85
2018-05-09T06:54:41.255Z,86.28
2018-05-09T06:55:41.325Z,85.94
2018-05-09T06:56:41.382Z,86.22
2018-05-09T06:57:41.438Z,85.75
2018-05-09T06:58:42.191Z,86.41
2018-05-09T06:59:41.565Z,85.27
2018-05-09T07:00:41.625Z,85.08
2018-05-09T07:01:41.685Z,84.64
2018-05-09T07:02:41.746Z,85.02
2018-05-09T07:03:41.807Z,84.26
2018-05-09T07:04:41.869Z,84.16
2018-05-09T07:05:41.929Z,84.26
2018-05-09T07:06:42.280Z,84.16
2018-05-09T07:07:42.054Z,84.83
2018-05-09T07:08:42.117Z,85.02
2018-05-09T07:09:42.177Z,84.06
2018-05-09T07:10:42.623Z,83.87
2018-05-09T07:11:42.300Z,83.30
2018-05-09T07:12:42.406Z,83.49
2018-05-09T07:13:42.423Z,83.25
2018-05-09T07:14:42.554Z,82.38
2018-05-09T07:15:42.546Z,82.19
2018-05-09T07:16:42.609Z,81.71
2018-05-09T07:17:42.670Z,81.43
2018-05-09T07:18:42.734Z,81.13
2018-05-09T07:19:42.799Z,80.85
2018-05-09T07:20:43.448Z,80.85
2018-05-09T07:21:43.093Z,81.33
2018-05-09T07:22:42.980Z,81.23
2018-05-09T07:23:43.042Z,81.08
2018-05-09T07:24:43.103Z,80.41
2018-05-09T07:25:43.919Z,79.93
2018-05-09T07:26:44.422Z,79.64
2018-05-09T07:27:43.291Z,79.55
2018-05-09T07:28:43.352Z,80.51
2018-05-09T07:29:43.413Z,79.93
2018-05-09T07:30:43.476Z,79.74
2018-05-09T07:31:43.538Z,79.93
2018-05-09T07:32:43.603Z,79.78
2018-05-09T07:33:43.663Z,79.30
2018-05-09T07:34:43.732Z,79.01
2018-05-09T07:35:43.788Z,78.63
2018-05-09T07:36:43.850Z,78.53
2018-05-09T07:37:43.913Z,78.57
2018-05-09T07:38:43.977Z,78.00
2018-05-09T07:39:44.051Z,77.90
2018-05-09T07:40:44.102Z,78.00
2018-05-09T07:41:44.161Z,78.47
2018-05-09T07:42:44.226Z,77.71
2018-05-09T07:43:44.291Z,77.51
2018-05-09T07:44:44.351Z,76.75
2018-05-09T07:45:44.413Z,76.59
2018-05-09T07:46:44.475Z,76.79
2018-05-09T07:47:44.624Z,76.31
2018-05-09T07:48:45.004Z,76.21
2018-05-09T07:49:44.664Z,76.31
2018-05-09T07:50:44.730Z,76.40
2018-05-09T07:51:44.789Z,75.54
2018-05-09T07:52:44.859Z,75.45
2018-05-09T07:53:44.944Z,74.77
2018-05-09T07:54:45.132Z,74.23
2018-05-09T07:55:45.100Z,74.71
2018-05-09T07:56:45.104Z,74.43
2018-05-09T07:57:45.167Z,74.33
2018-05-09T07:58:45.230Z,74.23
2018-05-09T07:59:45.294Z,74.33
2018-05-09T08:00:45.360Z,73.98
2018-05-09T08:01:45.770Z,74.04
2018-05-09T08:02:45.482Z,73.79
2018-05-09T08:03:46.028Z,73.02
2018-05-09T08:04:45.860Z,72.73
2018-05-09T08:05:45.678Z,71.87
2018-05-09T08:06:45.736Z,71.14
2018-05-09T08:07:45.854Z,71.42
2018-05-09T08:08:45.881Z,70.75
2018-05-09T08:09:45.945Z,70.37
2018-05-09T08:10:50.517Z,70.17
2018-05-09T08:11:46.658Z,70.01
2018-05-09T08:12:46.906Z,69.82
2018-05-09T08:13:46.182Z,69.24
2018-05-09T08:14:46.245Z,68.86
2018-05-09T08:15:46.308Z,68.51
2018-05-09T08:16:46.374Z,67.55
2018-05-09T08:17:46.435Z,67.55
2018-05-09T08:18:46.503Z,67.65
2018-05-09T08:19:46.565Z,67.55
2018-05-09T08:20:46.628Z,67.83
2018-05-09T08:21:46.692Z,67.65
2018-05-09T08:22:46.755Z,67.45
2018-05-09T08:23:46.904Z,68.13
2018-05-09T08:24:46.887Z,68.13
2018-05-09T08:25:46.946Z,68.32
2018-05-09T08:26:47.011Z,68.03
2018-05-09T08:27:47.078Z,67.83
2018-05-09T08:28:47.141Z,67.77
2018-05-09T08:29:47.202Z,66.24
2018-05-09T08:30:47.267Z,66.71
2018-05-09T08:31:47.332Z,66.14
2018-05-09T08:32:48.017Z,65.69
2018-05-09T08:33:48.128Z,65.78
2018-05-09T08:34:52.794Z,65.59
2018-05-09T08:35:47.592Z,65.01
2018-05-09T08:36:47.698Z,64.63
2018-05-09T08:37:47.717Z,63.38
2018-05-09T08:38:48.408Z,64.18
2018-05-09T08:39:47.854Z,63.79
2018-05-09T08:40:47.925Z,63.50
2018-05-09T08:41:47.977Z,62.86
2018-05-09T08:42:48.047Z,62.09
2018-05-09T08:43:48.221Z,61.44
2018-05-09T08:44:48.170Z,60.58
2018-05-09T08:45:48.967Z,59.23
2018-05-09T08:46:48.937Z,59.13
2018-05-09T08:47:48.363Z,59.42
2018-05-09T08:48:48.429Z,58.87
2018-05-09T08:49:48.493Z,58.58
2018-05-09T08:50:48.561Z,58.39
2018-05-09T08:51:48.623Z,58.29
2018-05-09T08:52:48.689Z,57.81
2018-05-09T08:53:48.752Z,56.94
2018-05-09T08:54:48.818Z,56.65
2018-05-09T08:55:48.888Z,56.94
2018-05-09T08:56:48.950Z,56.20
2018-05-09T08:57:49.014Z,56.29
2018-05-09T08:58:49.078Z,56.00
2018-05-09T08:59:49.146Z,55.90
2018-05-09T09:00:49.211Z,55.68
2018-05-09T09:01:49.653Z,55.81
2018-05-09T09:02:49.420Z,55.81
2018-05-09T09:03:49.405Z,56.48
2018-05-09T09:04:49.475Z,56.00
2018-05-09T09:05:49.536Z,56.07
2018-05-09T09:06:49.602Z,55.88
2018-05-09T09:07:49.698Z,56.46
2018-05-09T09:08:49.833Z,56.46
2018-05-09T09:09:49.807Z,56.58
2018-05-09T09:10:49.929Z,56.48
2018-05-09T09:11:49.931Z,56.29
2018-05-09T09:12:50.347Z,56.48
2018-05-09T09:13:50.062Z,56.20
2018-05-09T09:14:50.128Z,55.81
2018-05-09T09:15:50.506Z,56.13
2018-05-09T09:16:50.271Z,56.03
2018-05-09T09:17:50.325Z,55.45
2018-05-09T09:18:50.390Z,55.93
2018-05-09T09:19:50.456Z,55.35
2018-05-09T09:20:50.578Z,55.45
2018-05-09T09:21:50.589Z,55.07
2018-05-09T09:22:50.986Z,55.26
2018-05-09T09:23:50.719Z,55.16
2018-05-09T09:24:50.825Z,55.16
2018-05-09T09:25:50.852Z,54.90
2018-05-09T09:26:50.919Z,54.80
2018-05-09T09:27:50.985Z,53.83
2018-05-09T09:28:51.050Z,54.32
2018-05-09T09:29:51.116Z,54.03
2018-05-09T09:30:51.185Z,53.93
2018-05-09T09:31:51.654Z,53.83
2018-05-09T09:32:51.315Z,53.96
2018-05-09T09:33:51.383Z,53.83
2018-05-09T09:34:51.447Z,54.03
2018-05-09T09:35:52.048Z,53.55
2018-05-09T09:36:52.104Z,52.99
2018-05-09T09:37:51.652Z,53.28
2018-05-09T09:38:52.084Z,52.70
2018-05-09T09:39:51.781Z,52.89
2018-05-09T09:40:51.859Z,53.47
2018-05-09T09:41:51.911Z,53.38
2018-05-09T09:42:51.980Z,53.28
2018-05-09T09:43:52.044Z,52.61
2018-05-09T09:44:52.491Z,52.80
2018-05-09T09:45:52.178Z,52.34
2018-05-09T09:46:52.254Z,52.14
2018-05-09T09:47:52.622Z,51.95
2018-05-09T09:48:52.378Z,50.79
2018-05-09T09:49:53.105Z,50.14
2018-05-09T09:50:52.510Z,49.85
2018-05-09T09:51:52.588Z,49.95
2018-05-09T09:52:52.643Z,49.56
2018-05-09T09:53:52.711Z,48.88
2018-05-09T09:54:52.778Z,49.46
2018-05-09T09:55:52.844Z,50.12
2018-05-09T09:56:52.940Z,49.56
2018-05-09T09:57:52.977Z,49.15
2018-05-09T09:58:53.045Z,49.46
2018-05-09T09:59:53.112Z,49.65
2018-05-09T10:00:53.180Z,49.75
2018-05-09T10:01:53.245Z,49.75
2018-05-09T10:02:53.318Z,49.97
2018-05-09T10:03:53.383Z,49.77
2018-05-09T10:04:53.454Z,48.79
2018-05-09T10:05:53.512Z,48.71
2018-05-09T10:06:53.581Z,47.84
2018-05-09T10:07:53.649Z,47.16
2018-05-09T10:08:53.720Z,46.97
2018-05-09T10:09:53.783Z,46.67
2018-05-09T10:10:53.852Z,45.34
2018-05-09T10:11:53.916Z,45.44
2018-05-09T10:12:53.990Z,44.88
2018-05-09T10:13:54.057Z,44.13
2018-05-09T10:14:54.126Z,44.13
2018-05-09T10:15:54.275Z,42.19
2018-05-09T10:16:54.259Z,42.09
2018-05-09T10:17:54.327Z,43.06
2018-05-09T10:18:54.398Z,42.30
2018-05-09T10:19:54.467Z,42.13
2018-05-09T10:20:54.538Z,42.03
2018-05-09T10:21:54.609Z,41.96
2018-05-09T10:22:54.678Z,40.60
2018-05-09T10:23:54.753Z,40.34
2018-05-09T10:24:54.822Z,39.76
2018-05-09T10:25:55.319Z,39.39
2018-05-09T10:26:54.964Z,38.60
2018-05-09T10:27:55.038Z,39.67
2018-05-09T10:28:55.110Z,39.47
2018-05-09T10:29:55.386Z,40.99
2018-05-09T10:30:55.257Z,41.57
2018-05-09T10:31:55.330Z,40.54
2018-05-09T10:32:55.402Z,39.03
2018-05-09T10:33:55.475Z,37.41
2018-05-09T10:34:55.550Z,36.63
2018-05-09T10:35:55.638Z,36.61
2018-05-09T10:36:55.706Z,37.10
2018-05-09T10:37:55.923Z,37.95
2018-05-09T10:38:55.852Z,37.85
2018-05-09T10:39:55.925Z,36.90
2018-05-09T10:40:55.998Z,36.33
2018-05-09T10:41:56.073Z,36.61
2018-05-09T10:42:56.149Z,37.66
2018-05-09T10:43:56.224Z,37.00
2018-05-09T10:44:56.300Z,36.41
2018-05-09T10:45:56.375Z,36.72
2018-05-09T10:46:56.449Z,34.99
2018-05-09T10:47:56.526Z,34.03
2018-05-09T10:48:56.610Z,33.48
2018-05-09T10:49:56.677Z,32.62
2018-05-09T10:50:56.752Z,31.75
2018-05-09T10:51:56.832Z,31.72
2018-05-09T10:52:56.925Z,33.25
2018-05-09T10:53:57.004Z,33.23
2018-05-09T10:54:57.083Z,33.62
2018-05-09T10:55:57.557Z,34.01
2018-05-09T10:56:57.213Z,33.92
2018-05-09T10:57:57.708Z,33.43
2018-05-09T10:58:57.361Z,33.64
2018-05-09T10:59:57.439Z,33.15
2018-05-09T11:00:57.520Z,33.14
2018-05-09T11:01:57.591Z,33.14
2018-05-09T11:02:57.667Z,32.75
2018-05-09T11:03:57.744Z,31.87
2018-05-09T11:04:58.483Z,32.65
2018-05-09T11:05:58.443Z,31.69
2018-05-09T11:06:58.647Z,31.12
2018-05-09T11:07:58.052Z,30.73
2018-05-09T11:08:58.128Z,30.44
2018-05-09T11:09:58.204Z,30.54
2018-05-09T11:10:58.281Z,31.60
2018-05-09T11:11:58.362Z,29.64
2018-05-09T11:12:58.437Z,29.63
2018-05-09T11:13:58.513Z,29.35
2018-05-09T11:14:58.591Z,28.42
2018-05-09T11:15:58.666Z,26.76
2018-05-09T11:16:58.742Z,26.48
2018-05-09T11:17:58.818Z,26.50
2018-05-09T11:18:58.899Z,27.25
2018-05-09T11:19:58.974Z,27.83
2018-05-09T11:20:59.049Z,29.25
2018-05-09T11:21:59.126Z,30.68
2018-05-09T11:22:59.205Z,31.38
2018-05-09T11:23:59.280Z,31.56
2018-05-09T11:24:59.358Z,31.59
2018-05-09T11:25:59.436Z,30.62
2018-05-09T11:26:59.512Z,30.71
2018-05-09T11:27:59.590Z,31.02
2018-05-09T11:28:59.666Z,30.65
2018-05-09T11:29:59.743Z,31.12
2018-05-09T11:30:59.827Z,31.13
2018-05-09T11:31:59.901Z,31.12
2018-05-09T11:32:59.976Z,30.35
2018-05-09T11:34:00.202Z,30.38
2018-05-09T11:35:00.129Z,29.60
2018-05-09T11:36:00.206Z,30.63
2018-05-09T11:37:00.284Z,31.59
2018-05-09T11:38:00.990Z,32.18
2018-05-09T11:39:00.875Z,31.70
2018-05-09T11:40:01.090Z,31.52
2018-05-09T11:41:01.195Z,30.37
2018-05-09T11:42:01.121Z,31.70
2018-05-09T11:43:01.307Z,31.90
2018-05-09T11:44:01.651Z,31.79
2018-05-09T11:45:01.418Z,31.57
2018-05-09T11:46:01.129Z,31.69
2018-05-09T11:47:01.596Z,31.72
2018-05-09T11:48:01.135Z,31.18
2018-05-09T11:49:01.762Z,29.53
2018-05-09T11:50:01.753Z,31.13
2018-05-09T11:51:01.365Z,32.47
2018-05-09T11:52:05.811Z,33.06
2018-05-09T11:53:01.535Z,33.33
2018-05-09T11:54:01.604Z,33.70
2018-05-09T11:55:01.670Z,34.56
2018-05-09T11:56:01.875Z,35.23
2018-05-09T11:57:02.224Z,36.38
2018-05-09T11:58:02.504Z,36.47
2018-05-09T11:59:02.605Z,36.57
2018-05-09T12:00:02.706Z,36.87
2018-05-09T12:01:02.573Z,36.47
2018-05-09T12:02:02.600Z,36.18
2018-05-09T12:03:02.266Z,36.47
2018-05-09T12:04:02.866Z,36.30
2018-05-09T12:05:03.094Z,36.18
2018-05-09T12:06:03.123Z,36.30
2018-05-09T12:07:03.214Z,36.20
2018-05-09T12:08:02.730Z,35.91
2018-05-09T12:09:02.707Z,35.61
2018-05-09T12:10:03.393Z,35.73
2018-05-09T12:11:03.533Z,36.57
2018-05-09T12:12:03.339Z,36.28
2018-05-09T12:13:03.672Z,35.80
2018-05-09T12:14:03.496Z,36.26
2018-05-09T12:15:03.648Z,36.00
2018-05-09T12:16:03.908Z,35.25
2018-05-09T12:17:03.663Z,34.39
2018-05-09T12:18:03.720Z,34.95
2018-05-09T12:19:03.969Z,33.14
2018-05-09T12:20:04.201Z,32.57
2018-05-09T12:21:04.262Z,31.56
2018-05-09T12:22:03.649Z,30.38
2018-05-09T12:23:04.169Z,29.25
2018-05-09T12:24:04.376Z,27.92
2018-05-09T12:25:03.871Z,27.45
2018-05-09T12:26:04.577Z,26.89
2018-05-09T12:27:04.708Z,25.54
2018-05-09T12:28:04.628Z,24.76
2018-05-09T12:29:04.653Z,24.07
2018-05-09T12:30:05.103Z,26.09
2018-05-09T12:31:04.317Z,26.76
2018-05-09T12:32:04.885Z,26.20
2018-05-09T12:33:05.075Z,25.62
2018-05-09T12:34:05.160Z,23.68
2018-05-09T12:35:05.052Z,23.79
2018-05-09T12:36:05.247Z,23.60
2018-05-09T12:37:05.227Z,23.20
2018-05-09T12:38:05.484Z,23.75
2018-05-09T12:39:05.621Z,25.21
2018-05-09T12:40:05.580Z,26.62
2018-05-09T12:41:05.624Z,28.63
2018-05-09T12:42:05.776Z,28.91
2018-05-09T12:43:05.810Z,29.49
2018-05-09T12:44:05.319Z,28.92
2018-05-09T12:45:06.242Z,27.75
2018-05-09T12:46:06.030Z,28.72
2018-05-09T12:47:06.182Z,29.41
2018-05-09T12:48:06.383Z,29.39
2018-05-09T12:49:06.259Z,31.04
2018-05-09T12:50:06.324Z,30.29
2018-05-09T12:51:06.634Z,29.90
2018-05-09T12:52:06.451Z,29.47
2018-05-09T12:53:06.450Z,28.53